sensor_id;sensor_type;location;lat;lon;timestamp;P1;durP1;ratioP1;P2;durP2;ratioP2
73084;SDS011;62974;49.460;10.892;2022-09-29T00:02:25;65.70;;;62.97;;
73084;SDS011;62974;49.460;10.892;2022-09-29T00:04:52;66.20;;;63.37;;
73084;SDS011;62974;49.460;10.892;2022-09-29T00:07:20;67.30;;;64.60;;
73084;SDS011;62974;49.460;10.892;2022-09-29T00:09:47;67.87;;;64.93;;
73084;SDS011;62974;49.460;10.892;2022-09-29T00:12:15;66.97;;;64.47;;
73084;SDS011;62974;49.460;10.892;2022-09-29T00:14:43;67.27;;;64.37;;
73084;SDS011;62974;49.460;10.892;2022-09-29T00:17:13;67.07;;;64.47;;
73084;SDS011;62974;49.460;10.892;2022-09-29T00:19:42;68.57;;;65.60;;
73084;SDS011;62974;49.460;10.892;2022-09-29T00:22:10;67.70;;;64.90;;
73084;SDS011;62974;49.460;10.892;2022-09-29T00:24:37;69.20;;;66.57;;
73084;SDS011;62974;49.460;10.892;2022-09-29T00:27:05;68.57;;;65.73;;
73084;SDS011;62974;49.460;10.892;2022-09-29T00:29:33;67.53;;;64.73;;
73084;SDS011;62974;49.460;10.892;2022-09-29T00:32:00;70.23;;;67.00;;
73084;SDS011;62974;49.460;10.892;2022-09-29T00:34:28;66.77;;;63.87;;
73084;SDS011;62974;49.460;10.892;2022-09-29T00:36:57;66.23;;;63.53;;
73084;SDS011;62974;49.460;10.892;2022-09-29T00:39:24;63.53;;;60.93;;
73084;SDS011;62974;49.460;10.892;2022-09-29T00:41:52;63.97;;;61.37;;
73084;SDS011;62974;49.460;10.892;2022-09-29T00:47:21;63.77;;;61.23;;
73084;SDS011;62974;49.460;10.892;2022-09-29T00:49:51;65.67;;;63.07;;
73084;SDS011;62974;49.460;10.892;2022-09-29T00:52:24;64.47;;;61.93;;
73084;SDS011;62974;49.460;10.892;2022-09-29T00:54:55;63.80;;;61.40;;
73084;SDS011;62974;49.460;10.892;2022-09-29T00:57:27;67.03;;;63.70;;
73084;SDS011;62974;49.460;10.892;2022-09-29T00:59:59;66.27;;;63.33;;
73084;SDS011;62974;49.460;10.892;2022-09-29T01:02:30;64.83;;;61.80;;
73084;SDS011;62974;49.460;10.892;2022-09-29T01:05:00;64.90;;;62.20;;
73084;SDS011;62974;49.460;10.892;2022-09-29T01:07:35;65.97;;;62.97;;
73084;SDS011;62974;49.460;10.892;2022-09-29T01:10:03;63.57;;;61.07;;
73084;SDS011;62974;49.460;10.892;2022-09-29T01:12:32;62.77;;;60.27;;
73084;SDS011;62974;49.460;10.892;2022-09-29T01:15:00;66.20;;;63.50;;
73084;SDS011;62974;49.460;10.892;2022-09-29T01:17:27;65.40;;;62.90;;
73084;SDS011;62974;49.460;10.892;2022-09-29T01:19:57;64.67;;;62.17;;
73084;SDS011;62974;49.460;10.892;2022-09-29T01:22:38;67.30;;;63.97;;
73084;SDS011;62974;49.460;10.892;2022-09-29T01:25:30;65.40;;;62.40;;
73084;SDS011;62974;49.460;10.892;2022-09-29T01:28:20;67.90;;;65.30;;
73084;SDS011;62974;49.460;10.892;2022-09-29T01:31:10;68.57;;;65.87;;
73084;SDS011;62974;49.460;10.892;2022-09-29T01:33:48;68.63;;;65.83;;
73084;SDS011;62974;49.460;10.892;2022-09-29T01:36:28;66.87;;;64.17;;
73084;SDS011;62974;49.460;10.892;2022-09-29T01:39:05;67.40;;;64.80;;
73084;SDS011;62974;49.460;10.892;2022-09-29T01:41:41;68.37;;;65.37;;
73084;SDS011;62974;49.460;10.892;2022-09-29T01:44:14;68.10;;;65.30;;
73084;SDS011;62974;49.460;10.892;2022-09-29T01:46:51;68.30;;;65.50;;
73084;SDS011;62974;49.460;10.892;2022-09-29T01:49:21;69.27;;;65.90;;
73084;SDS011;62974;49.460;10.892;2022-09-29T01:51:53;68.77;;;65.90;;
73084;SDS011;62974;49.460;10.892;2022-09-29T01:54:24;68.20;;;65.07;;
73084;SDS011;62974;49.460;10.892;2022-09-29T01:56:57;69.13;;;66.17;;
73084;SDS011;62974;49.460;10.892;2022-09-29T01:59:33;67.83;;;65.13;;
73084;SDS011;62974;49.460;10.892;2022-09-29T02:02:11;69.57;;;65.90;;
73084;SDS011;62974;49.460;10.892;2022-09-29T02:04:45;67.70;;;64.90;;
73084;SDS011;62974;49.460;10.892;2022-09-29T02:07:18;68.00;;;64.97;;
73084;SDS011;62974;49.460;10.892;2022-09-29T02:09:49;68.80;;;65.90;;
73084;SDS011;62974;49.460;10.892;2022-09-29T02:12:24;66.90;;;64.20;;
73084;SDS011;62974;49.460;10.892;2022-09-29T02:14:54;69.13;;;66.27;;
73084;SDS011;62974;49.460;10.892;2022-09-29T02:17:27;68.10;;;65.23;;
73084;SDS011;62974;49.460;10.892;2022-09-29T02:19:59;70.10;;;67.20;;
73084;SDS011;62974;49.460;10.892;2022-09-29T02:22:26;70.10;;;67.00;;
73084;SDS011;62974;49.460;10.892;2022-09-29T02:24:55;65.90;;;63.20;;
73084;SDS011;62974;49.460;10.892;2022-09-29T02:27:25;67.70;;;65.00;;
73084;SDS011;62974;49.460;10.892;2022-09-29T02:29:55;67.67;;;65.07;;
73084;SDS011;62974;49.460;10.892;2022-09-29T02:32:23;67.20;;;64.40;;
73084;SDS011;62974;49.460;10.892;2022-09-29T02:34:54;67.73;;;64.80;;
73084;SDS011;62974;49.460;10.892;2022-09-29T02:37:27;68.87;;;65.77;;
73084;SDS011;62974;49.460;10.892;2022-09-29T02:40:09;68.50;;;65.30;;
73084;SDS011;62974;49.460;10.892;2022-09-29T02:42:49;67.90;;;65.00;;
73084;SDS011;62974;49.460;10.892;2022-09-29T02:45:32;69.43;;;66.43;;
73084;SDS011;62974;49.460;10.892;2022-09-29T02:48:16;68.77;;;65.97;;
73084;SDS011;62974;49.460;10.892;2022-09-29T02:50:58;68.60;;;65.60;;
73084;SDS011;62974;49.460;10.892;2022-09-29T02:53:38;67.63;;;64.73;;
73084;SDS011;62974;49.460;10.892;2022-09-29T02:56:17;67.23;;;64.43;;
73084;SDS011;62974;49.460;10.892;2022-09-29T02:58:53;68.57;;;65.77;;
73084;SDS011;62974;49.460;10.892;2022-09-29T03:01:29;66.63;;;63.63;;
73084;SDS011;62974;49.460;10.892;2022-09-29T03:03:58;67.37;;;64.37;;
73084;SDS011;62974;49.460;10.892;2022-09-29T03:06:31;62.90;;;60.10;;
73084;SDS011;62974;49.460;10.892;2022-09-29T03:08:59;63.50;;;60.80;;
73084;SDS011;62974;49.460;10.892;2022-09-29T03:11:26;62.27;;;59.73;;
73084;SDS011;62974;49.460;10.892;2022-09-29T03:13:54;62.13;;;59.50;;
73084;SDS011;62974;49.460;10.892;2022-09-29T03:16:21;62.27;;;59.87;;
73084;SDS011;62974;49.460;10.892;2022-09-29T03:18:49;61.07;;;58.53;;
73084;SDS011;62974;49.460;10.892;2022-09-29T03:21:17;62.97;;;59.93;;
73084;SDS011;62974;49.460;10.892;2022-09-29T03:23:46;63.63;;;60.83;;
73084;SDS011;62974;49.460;10.892;2022-09-29T03:26:13;62.13;;;59.37;;
73084;SDS011;62974;49.460;10.892;2022-09-29T03:28:41;62.20;;;59.70;;
73084;SDS011;62974;49.460;10.892;2022-09-29T03:31:09;63.90;;;60.93;;
73084;SDS011;62974;49.460;10.892;2022-09-29T03:33:37;62.80;;;60.30;;
73084;SDS011;62974;49.460;10.892;2022-09-29T03:36:05;62.43;;;59.93;;
73084;SDS011;62974;49.460;10.892;2022-09-29T03:38:34;62.27;;;59.70;;
73084;SDS011;62974;49.460;10.892;2022-09-29T03:41:03;61.80;;;59.27;;
73084;SDS011;62974;49.460;10.892;2022-09-29T03:43:32;62.33;;;59.73;;
73084;SDS011;62974;49.460;10.892;2022-09-29T03:46:00;63.00;;;60.30;;
73084;SDS011;62974;49.460;10.892;2022-09-29T03:48:29;61.43;;;59.03;;
73084;SDS011;62974;49.460;10.892;2022-09-29T03:50:59;62.23;;;59.53;;
73084;SDS011;62974;49.460;10.892;2022-09-29T03:53:27;62.07;;;59.67;;
73084;SDS011;62974;49.460;10.892;2022-09-29T03:55:54;61.80;;;59.40;;
73084;SDS011;62974;49.460;10.892;2022-09-29T03:58:23;62.40;;;59.90;;
73084;SDS011;62974;49.460;10.892;2022-09-29T04:00:51;62.17;;;59.30;;
73084;SDS011;62974;49.460;10.892;2022-09-29T04:03:20;60.97;;;58.33;;
73084;SDS011;62974;49.460;10.892;2022-09-29T04:05:47;61.87;;;59.20;;
73084;SDS011;62974;49.460;10.892;2022-09-29T04:08:15;61.93;;;59.30;;
73084;SDS011;62974;49.460;10.892;2022-09-29T04:10:44;68.60;;;65.60;;
73084;SDS011;62974;49.460;10.892;2022-09-29T04:13:13;69.63;;;66.63;;
73084;SDS011;62974;49.460;10.892;2022-09-29T04:15:46;69.67;;;66.00;;
73084;SDS011;62974;49.460;10.892;2022-09-29T04:18:14;69.60;;;66.63;;
73084;SDS011;62974;49.460;10.892;2022-09-29T04:20:41;69.43;;;66.63;;
73084;SDS011;62974;49.460;10.892;2022-09-29T04:23:09;64.90;;;62.30;;
73084;SDS011;62974;49.460;10.892;2022-09-29T04:25:37;68.63;;;65.77;;
73084;SDS011;62974;49.460;10.892;2022-09-29T04:28:05;68.27;;;65.37;;
73084;SDS011;62974;49.460;10.892;2022-09-29T04:30:33;68.87;;;66.07;;
73084;SDS011;62974;49.460;10.892;2022-09-29T04:33:02;69.90;;;66.53;;
73084;SDS011;62974;49.460;10.892;2022-09-29T04:35:30;70.73;;;67.60;;
73084;SDS011;62974;49.460;10.892;2022-09-29T04:38:02;69.90;;;66.70;;
73084;SDS011;62974;49.460;10.892;2022-09-29T04:40:29;69.57;;;66.63;;
73084;SDS011;62974;49.460;10.892;2022-09-29T04:42:57;69.43;;;66.43;;
73084;SDS011;62974;49.460;10.892;2022-09-29T04:45:25;68.03;;;65.30;;
73084;SDS011;62974;49.460;10.892;2022-09-29T04:47:53;68.93;;;66.03;;
73084;SDS011;62974;49.460;10.892;2022-09-29T04:50:22;69.20;;;66.33;;
73084;SDS011;62974;49.460;10.892;2022-09-29T04:52:50;75.00;;;71.60;;
73084;SDS011;62974;49.460;10.892;2022-09-29T04:55:17;84.60;;;79.90;;
73084;SDS011;62974;49.460;10.892;2022-09-29T04:57:45;78.53;;;73.47;;
73084;SDS011;62974;49.460;10.892;2022-09-29T05:00:14;64.63;;;61.37;;
73084;SDS011;62974;49.460;10.892;2022-09-29T05:02:42;68.83;;;65.90;;
73084;SDS011;62974;49.460;10.892;2022-09-29T05:05:15;66.23;;;63.13;;
73084;SDS011;62974;49.460;10.892;2022-09-29T05:07:44;68.30;;;65.10;;
73084;SDS011;62974;49.460;10.892;2022-09-29T05:10:13;65.30;;;62.50;;
73084;SDS011;62974;49.460;10.892;2022-09-29T05:12:45;67.20;;;63.90;;
73084;SDS011;62974;49.460;10.892;2022-09-29T05:15:15;64.40;;;61.60;;
73084;SDS011;62974;49.460;10.892;2022-09-29T05:17:50;64.63;;;61.70;;
73084;SDS011;62974;49.460;10.892;2022-09-29T05:20:17;64.77;;;61.93;;
73084;SDS011;62974;49.460;10.892;2022-09-29T05:22:46;63.50;;;60.80;;
73084;SDS011;62974;49.460;10.892;2022-09-29T05:25:14;64.10;;;61.30;;
73084;SDS011;62974;49.460;10.892;2022-09-29T05:27:42;63.30;;;60.30;;
73084;SDS011;62974;49.460;10.892;2022-09-29T05:30:09;63.67;;;60.63;;
73084;SDS011;62974;49.460;10.892;2022-09-29T05:32:37;65.03;;;62.13;;
73084;SDS011;62974;49.460;10.892;2022-09-29T05:35:05;62.37;;;59.67;;
73084;SDS011;62974;49.460;10.892;2022-09-29T05:37:33;63.67;;;60.97;;
73084;SDS011;62974;49.460;10.892;2022-09-29T05:40:02;64.53;;;61.57;;
73084;SDS011;62974;49.460;10.892;2022-09-29T05:42:30;63.33;;;60.33;;
73084;SDS011;62974;49.460;10.892;2022-09-29T05:44:58;62.60;;;59.90;;
73084;SDS011;62974;49.460;10.892;2022-09-29T05:47:26;61.47;;;58.77;;
73084;SDS011;62974;49.460;10.892;2022-09-29T05:49:54;63.20;;;60.50;;
73084;SDS011;62974;49.460;10.892;2022-09-29T05:52:21;63.50;;;60.50;;
73084;SDS011;62974;49.460;10.892;2022-09-29T05:54:49;63.30;;;60.70;;
73084;SDS011;62974;49.460;10.892;2022-09-29T05:57:18;63.00;;;59.97;;
73084;SDS011;62974;49.460;10.892;2022-09-29T05:59:46;62.67;;;59.47;;
73084;SDS011;62974;49.460;10.892;2022-09-29T06:02:13;62.03;;;59.43;;
73084;SDS011;62974;49.460;10.892;2022-09-29T06:04:42;63.07;;;60.37;;
73084;SDS011;62974;49.460;10.892;2022-09-29T06:07:09;64.00;;;61.10;;
73084;SDS011;62974;49.460;10.892;2022-09-29T06:09:37;64.23;;;61.07;;
73084;SDS011;62974;49.460;10.892;2022-09-29T06:12:05;63.17;;;60.47;;
73084;SDS011;62974;49.460;10.892;2022-09-29T06:14:34;64.30;;;61.40;;
73084;SDS011;62974;49.460;10.892;2022-09-29T06:17:01;63.40;;;60.60;;
73084;SDS011;62974;49.460;10.892;2022-09-29T06:19:29;63.63;;;60.50;;
73084;SDS011;62974;49.460;10.892;2022-09-29T06:21:56;64.00;;;61.20;;
73084;SDS011;62974;49.460;10.892;2022-09-29T06:24:24;63.17;;;60.57;;
73084;SDS011;62974;49.460;10.892;2022-09-29T06:26:52;65.03;;;61.70;;
73084;SDS011;62974;49.460;10.892;2022-09-29T06:29:19;64.90;;;61.77;;
73084;SDS011;62974;49.460;10.892;2022-09-29T06:31:48;64.27;;;61.50;;
73084;SDS011;62974;49.460;10.892;2022-09-29T06:34:16;65.80;;;62.60;;
73084;SDS011;62974;49.460;10.892;2022-09-29T06:36:43;65.93;;;63.03;;
73084;SDS011;62974;49.460;10.892;2022-09-29T06:39:29;65.30;;;62.20;;
73084;SDS011;62974;49.460;10.892;2022-09-29T06:41:57;65.90;;;62.70;;
73084;SDS011;62974;49.460;10.892;2022-09-29T06:44:25;64.70;;;61.77;;
73084;SDS011;62974;49.460;10.892;2022-09-29T06:46:57;67.40;;;64.10;;
73084;SDS011;62974;49.460;10.892;2022-09-29T06:49:25;63.90;;;60.77;;
73084;SDS011;62974;49.460;10.892;2022-09-29T06:51:53;65.60;;;62.47;;
73084;SDS011;62974;49.460;10.892;2022-09-29T06:54:21;68.30;;;64.80;;
73084;SDS011;62974;49.460;10.892;2022-09-29T06:56:50;66.27;;;62.87;;
73084;SDS011;62974;49.460;10.892;2022-09-29T06:59:20;66.37;;;62.83;;
73084;SDS011;62974;49.460;10.892;2022-09-29T07:01:48;65.97;;;62.67;;
73084;SDS011;62974;49.460;10.892;2022-09-29T07:04:18;70.57;;;66.63;;
73084;SDS011;62974;49.460;10.892;2022-09-29T07:06:47;67.90;;;64.50;;
73084;SDS011;62974;49.460;10.892;2022-09-29T07:09:16;64.80;;;61.60;;
73084;SDS011;62974;49.460;10.892;2022-09-29T07:11:45;65.27;;;62.27;;
73084;SDS011;62974;49.460;10.892;2022-09-29T07:14:15;67.67;;;63.33;;
73084;SDS011;62974;49.460;10.892;2022-09-29T07:16:43;65.23;;;61.90;;
73084;SDS011;62974;49.460;10.892;2022-09-29T07:19:11;66.17;;;60.30;;
73084;SDS011;62974;49.460;10.892;2022-09-29T07:21:40;64.50;;;60.90;;
73084;SDS011;62974;49.460;10.892;2022-09-29T07:24:08;65.07;;;61.50;;
73084;SDS011;62974;49.460;10.892;2022-09-29T07:26:36;64.23;;;59.63;;
73084;SDS011;62974;49.460;10.892;2022-09-29T07:29:04;66.73;;;62.70;;
73084;SDS011;62974;49.460;10.892;2022-09-29T07:31:35;63.13;;;60.17;;
73084;SDS011;62974;49.460;10.892;2022-09-29T07:34:16;68.30;;;62.37;;
73084;SDS011;62974;49.460;10.892;2022-09-29T07:36:45;63.90;;;60.90;;
73084;SDS011;62974;49.460;10.892;2022-09-29T07:39:13;63.33;;;60.50;;
73084;SDS011;62974;49.460;10.892;2022-09-29T07:41:40;64.53;;;61.37;;
73084;SDS011;62974;49.460;10.892;2022-09-29T07:44:08;63.50;;;60.57;;
73084;SDS011;62974;49.460;10.892;2022-09-29T07:46:36;64.43;;;61.47;;
73084;SDS011;62974;49.460;10.892;2022-09-29T07:49:04;64.67;;;61.43;;
73084;SDS011;62974;49.460;10.892;2022-09-29T07:51:31;64.60;;;61.27;;
73084;SDS011;62974;49.460;10.892;2022-09-29T07:54:01;67.93;;;64.70;;
73084;SDS011;62974;49.460;10.892;2022-09-29T07:56:30;64.70;;;61.30;;
73084;SDS011;62974;49.460;10.892;2022-09-29T07:58:58;65.93;;;62.63;;
73084;SDS011;62974;49.460;10.892;2022-09-29T08:01:27;67.17;;;63.43;;
73084;SDS011;62974;49.460;10.892;2022-09-29T08:03:56;66.30;;;62.77;;
73084;SDS011;62974;49.460;10.892;2022-09-29T08:06:25;65.70;;;62.23;;
73084;SDS011;62974;49.460;10.892;2022-09-29T08:08:53;67.93;;;64.47;;
73084;SDS011;62974;49.460;10.892;2022-09-29T08:11:31;65.93;;;62.80;;
73084;SDS011;62974;49.460;10.892;2022-09-29T08:14:00;65.83;;;62.80;;
73084;SDS011;62974;49.460;10.892;2022-09-29T08:16:28;65.20;;;62.20;;
73084;SDS011;62974;49.460;10.892;2022-09-29T08:18:57;67.20;;;64.20;;
73084;SDS011;62974;49.460;10.892;2022-09-29T08:21:25;67.50;;;64.00;;
73084;SDS011;62974;49.460;10.892;2022-09-29T08:23:54;65.53;;;62.13;;
73084;SDS011;62974;49.460;10.892;2022-09-29T08:26:22;65.10;;;61.80;;
73084;SDS011;62974;49.460;10.892;2022-09-29T08:29:08;65.50;;;62.40;;
73084;SDS011;62974;49.460;10.892;2022-09-29T08:31:41;66.10;;;62.90;;
73084;SDS011;62974;49.460;10.892;2022-09-29T08:34:09;63.97;;;60.97;;
73084;SDS011;62974;49.460;10.892;2022-09-29T08:36:39;65.13;;;61.73;;
73084;SDS011;62974;49.460;10.892;2022-09-29T08:39:08;67.00;;;63.70;;
73084;SDS011;62974;49.460;10.892;2022-09-29T08:41:49;64.93;;;61.80;;
73084;SDS011;62974;49.460;10.892;2022-09-29T08:44:27;64.93;;;61.70;;
73084;SDS011;62974;49.460;10.892;2022-09-29T08:47:06;65.37;;;61.97;;
73084;SDS011;62974;49.460;10.892;2022-09-29T08:49:45;63.53;;;60.53;;
73084;SDS011;62974;49.460;10.892;2022-09-29T08:52:16;64.33;;;61.27;;
73084;SDS011;62974;49.460;10.892;2022-09-29T08:54:47;64.80;;;61.70;;
73084;SDS011;62974;49.460;10.892;2022-09-29T08:57:19;64.40;;;61.40;;
73084;SDS011;62974;49.460;10.892;2022-09-29T08:59:54;63.50;;;60.60;;
73084;SDS011;62974;49.460;10.892;2022-09-29T09:02:39;66.90;;;63.40;;
73084;SDS011;62974;49.460;10.892;2022-09-29T09:05:27;65.30;;;61.83;;
73084;SDS011;62974;49.460;10.892;2022-09-29T09:08:04;63.67;;;60.87;;
73084;SDS011;62974;49.460;10.892;2022-09-29T09:10:42;65.70;;;62.00;;
73084;SDS011;62974;49.460;10.892;2022-09-29T09:13:18;64.83;;;61.70;;
73084;SDS011;62974;49.460;10.892;2022-09-29T09:16:03;63.90;;;60.80;;
73084;SDS011;62974;49.460;10.892;2022-09-29T09:18:45;64.20;;;61.30;;
73084;SDS011;62974;49.460;10.892;2022-09-29T09:21:23;65.13;;;61.40;;
73084;SDS011;62974;49.460;10.892;2022-09-29T09:23:56;64.93;;;61.83;;
73084;SDS011;62974;49.460;10.892;2022-09-29T09:26:31;67.17;;;63.80;;
73084;SDS011;62974;49.460;10.892;2022-09-29T09:29:04;64.77;;;61.90;;
73084;SDS011;62974;49.460;10.892;2022-09-29T09:31:42;66.93;;;63.53;;
73084;SDS011;62974;49.460;10.892;2022-09-29T09:34:15;67.87;;;64.50;;
73084;SDS011;62974;49.460;10.892;2022-09-29T09:37:04;65.10;;;62.07;;
73084;SDS011;62974;49.460;10.892;2022-09-29T09:39:35;64.57;;;61.17;;
73084;SDS011;62974;49.460;10.892;2022-09-29T09:42:10;65.53;;;62.33;;
73084;SDS011;62974;49.460;10.892;2022-09-29T09:44:41;64.87;;;61.73;;
73084;SDS011;62974;49.460;10.892;2022-09-29T09:47:20;66.20;;;62.67;;
73084;SDS011;62974;49.460;10.892;2022-09-29T09:49:51;66.30;;;62.77;;
73084;SDS011;62974;49.460;10.892;2022-09-29T09:52:23;66.77;;;63.07;;
73084;SDS011;62974;49.460;10.892;2022-09-29T09:54:57;65.13;;;61.80;;
73084;SDS011;62974;49.460;10.892;2022-09-29T09:57:34;66.37;;;62.87;;
73084;SDS011;62974;49.460;10.892;2022-09-29T10:00:10;66.90;;;63.33;;
73084;SDS011;62974;49.460;10.892;2022-09-29T10:02:43;66.20;;;62.90;;
73084;SDS011;62974;49.460;10.892;2022-09-29T10:05:13;65.43;;;62.17;;
73084;SDS011;62974;49.460;10.892;2022-09-29T10:07:42;65.30;;;62.10;;
73084;SDS011;62974;49.460;10.892;2022-09-29T10:10:14;66.03;;;62.60;;
73084;SDS011;62974;49.460;10.892;2022-09-29T10:12:44;64.63;;;61.63;;
73084;SDS011;62974;49.460;10.892;2022-09-29T10:15:14;62.87;;;60.07;;
73084;SDS011;62974;49.460;10.892;2022-09-29T10:17:48;64.97;;;61.97;;
73084;SDS011;62974;49.460;10.892;2022-09-29T10:20:27;64.77;;;62.00;;
73084;SDS011;62974;49.460;10.892;2022-09-29T10:23:12;64.33;;;61.33;;
73084;SDS011;62974;49.460;10.892;2022-09-29T10:25:50;65.70;;;62.50;;
73084;SDS011;62974;49.460;10.892;2022-09-29T10:28:20;64.13;;;60.83;;
73084;SDS011;62974;49.460;10.892;2022-09-29T10:30:49;63.03;;;60.10;;
73084;SDS011;62974;49.460;10.892;2022-09-29T10:33:20;65.10;;;61.57;;
73084;SDS011;62974;49.460;10.892;2022-09-29T10:35:50;61.97;;;59.17;;
73084;SDS011;62974;49.460;10.892;2022-09-29T10:38:32;64.00;;;60.87;;
73084;SDS011;62974;49.460;10.892;2022-09-29T10:41:01;63.80;;;60.67;;
73084;SDS011;62974;49.460;10.892;2022-09-29T10:43:31;66.10;;;62.80;;
73084;SDS011;62974;49.460;10.892;2022-09-29T10:46:02;68.60;;;64.77;;
73084;SDS011;62974;49.460;10.892;2022-09-29T10:48:32;66.20;;;62.63;;
73084;SDS011;62974;49.460;10.892;2022-09-29T10:51:00;67.87;;;64.27;;
73084;SDS011;62974;49.460;10.892;2022-09-29T10:53:34;67.03;;;63.63;;
73084;SDS011;62974;49.460;10.892;2022-09-29T10:56:06;66.40;;;63.00;;
73084;SDS011;62974;49.460;10.892;2022-09-29T10:58:42;69.60;;;65.43;;
73084;SDS011;62974;49.460;10.892;2022-09-29T11:01:28;64.83;;;61.70;;
73084;SDS011;62974;49.460;10.892;2022-09-29T11:04:00;65.07;;;62.17;;
73084;SDS011;62974;49.460;10.892;2022-09-29T11:06:31;64.70;;;61.90;;
73084;SDS011;62974;49.460;10.892;2022-09-29T11:09:01;71.10;;;66.60;;
73084;SDS011;62974;49.460;10.892;2022-09-29T11:11:31;66.07;;;62.70;;
73084;SDS011;62974;49.460;10.892;2022-09-29T11:14:00;67.37;;;64.00;;
73084;SDS011;62974;49.460;10.892;2022-09-29T11:16:29;66.23;;;63.23;;
73084;SDS011;62974;49.460;10.892;2022-09-29T11:19:02;64.37;;;61.40;;
73084;SDS011;62974;49.460;10.892;2022-09-29T11:24:53;64.90;;;61.90;;
73084;SDS011;62974;49.460;10.892;2022-09-29T11:27:43;64.17;;;61.47;;
73084;SDS011;62974;49.460;10.892;2022-09-29T11:30:20;64.23;;;61.50;;
73084;SDS011;62974;49.460;10.892;2022-09-29T11:32:53;63.30;;;60.50;;
73084;SDS011;62974;49.460;10.892;2022-09-29T11:35:35;65.50;;;62.30;;
73084;SDS011;62974;49.460;10.892;2022-09-29T11:38:23;64.70;;;61.30;;
73084;SDS011;62974;49.460;10.892;2022-09-29T11:41:11;63.37;;;60.30;;
73084;SDS011;62974;49.460;10.892;2022-09-29T11:43:50;61.90;;;59.30;;
73084;SDS011;62974;49.460;10.892;2022-09-29T11:46:25;63.17;;;60.37;;
73084;SDS011;62974;49.460;10.892;2022-09-29T11:49:07;64.07;;;61.40;;
73084;SDS011;62974;49.460;10.892;2022-09-29T11:51:55;61.70;;;58.90;;
73084;SDS011;62974;49.460;10.892;2022-09-29T11:54:45;61.20;;;58.60;;
73084;SDS011;62974;49.460;10.892;2022-09-29T11:57:35;60.77;;;58.07;;
73084;SDS011;62974;49.460;10.892;2022-09-29T12:00:17;60.97;;;58.33;;
73084;SDS011;62974;49.460;10.892;2022-09-29T12:03:17;61.43;;;58.73;;
73084;SDS011;62974;49.460;10.892;2022-09-29T12:05:52;60.97;;;58.20;;
73084;SDS011;62974;49.460;10.892;2022-09-29T12:08:36;61.03;;;58.40;;
73084;SDS011;62974;49.460;10.892;2022-09-29T12:11:14;60.13;;;57.63;;
73084;SDS011;62974;49.460;10.892;2022-09-29T12:14:11;60.60;;;58.10;;
73084;SDS011;62974;49.460;10.892;2022-09-29T12:16:46;61.77;;;58.50;;
73084;SDS011;62974;49.460;10.892;2022-09-29T12:19:20;60.67;;;58.03;;
73084;SDS011;62974;49.460;10.892;2022-09-29T12:21:51;60.00;;;57.60;;
73084;SDS011;62974;49.460;10.892;2022-09-29T12:24:31;60.97;;;58.27;;
73084;SDS011;62974;49.460;10.892;2022-09-29T12:27:03;59.60;;;57.10;;
73084;SDS011;62974;49.460;10.892;2022-09-29T12:29:34;60.00;;;57.60;;
73084;SDS011;62974;49.460;10.892;2022-09-29T12:32:08;60.60;;;57.80;;
73084;SDS011;62974;49.460;10.892;2022-09-29T12:34:44;59.30;;;56.90;;
73084;SDS011;62974;49.460;10.892;2022-09-29T12:37:17;58.80;;;56.50;;
73084;SDS011;62974;49.460;10.892;2022-09-29T12:39:54;60.60;;;58.20;;
73084;SDS011;62974;49.460;10.892;2022-09-29T12:42:36;58.77;;;56.40;;
73084;SDS011;62974;49.460;10.892;2022-09-29T12:45:13;59.80;;;57.20;;
73084;SDS011;62974;49.460;10.892;2022-09-29T12:47:50;61.07;;;58.60;;
73084;SDS011;62974;49.460;10.892;2022-09-29T12:50:25;59.40;;;57.10;;
73084;SDS011;62974;49.460;10.892;2022-09-29T12:52:57;60.30;;;57.70;;
73084;SDS011;62974;49.460;10.892;2022-09-29T12:55:39;60.20;;;57.57;;
73084;SDS011;62974;49.460;10.892;2022-09-29T12:58:13;58.77;;;56.27;;
73084;SDS011;62974;49.460;10.892;2022-09-29T13:00:48;58.10;;;55.70;;
73084;SDS011;62974;49.460;10.892;2022-09-29T13:03:29;57.00;;;55.00;;
73084;SDS011;62974;49.460;10.892;2022-09-29T13:06:27;57.77;;;55.67;;
73084;SDS011;62974;49.460;10.892;2022-09-29T13:09:22;58.40;;;56.07;;
73084;SDS011;62974;49.460;10.892;2022-09-29T13:12:17;57.63;;;55.10;;
73084;SDS011;62974;49.460;10.892;2022-09-29T13:18:07;57.90;;;55.33;;
73084;SDS011;62974;49.460;10.892;2022-09-29T13:21:02;57.67;;;55.60;;
73084;SDS011;62974;49.460;10.892;2022-09-29T13:23:39;57.90;;;55.80;;
73084;SDS011;62974;49.460;10.892;2022-09-29T13:26:24;58.70;;;56.60;;
73084;SDS011;62974;49.460;10.892;2022-09-29T13:29:03;58.80;;;56.63;;
73084;SDS011;62974;49.460;10.892;2022-09-29T13:31:38;59.10;;;56.60;;
73084;SDS011;62974;49.460;10.892;2022-09-29T13:34:22;58.10;;;56.00;;
73084;SDS011;62974;49.460;10.892;2022-09-29T13:37:03;57.77;;;55.30;;
73084;SDS011;62974;49.460;10.892;2022-09-29T13:39:33;57.90;;;55.63;;
73084;SDS011;62974;49.460;10.892;2022-09-29T13:47:46;64.87;;;61.60;;
73084;SDS011;62974;49.460;10.892;2022-09-29T13:53:33;58.63;;;56.50;;
73084;SDS011;62974;49.460;10.892;2022-09-29T13:56:09;59.53;;;57.40;;
73084;SDS011;62974;49.460;10.892;2022-09-29T13:58:54;60.50;;;58.30;;
73084;SDS011;62974;49.460;10.892;2022-09-29T14:01:30;58.03;;;55.73;;
73084;SDS011;62974;49.460;10.892;2022-09-29T14:07:10;59.00;;;56.90;;
73084;SDS011;62974;49.460;10.892;2022-09-29T14:09:39;59.50;;;57.40;;
73084;SDS011;62974;49.460;10.892;2022-09-29T14:12:15;59.90;;;57.80;;
73084;SDS011;62974;49.460;10.892;2022-09-29T14:14:48;59.17;;;57.03;;
73084;SDS011;62974;49.460;10.892;2022-09-29T14:17:23;60.40;;;58.10;;
73084;SDS011;62974;49.460;10.892;2022-09-29T14:19:58;61.57;;;59.27;;
73084;SDS011;62974;49.460;10.892;2022-09-29T14:22:53;60.93;;;58.73;;
73084;SDS011;62974;49.460;10.892;2022-09-29T14:25:29;61.37;;;58.97;;
73084;SDS011;62974;49.460;10.892;2022-09-29T14:28:19;61.00;;;58.70;;
73084;SDS011;62974;49.460;10.892;2022-09-29T14:30:53;61.47;;;59.27;;
73084;SDS011;62974;49.460;10.892;2022-09-29T14:33:27;58.17;;;55.87;;
73084;SDS011;62974;49.460;10.892;2022-09-29T14:36:02;57.57;;;55.50;;
73084;SDS011;62974;49.460;10.892;2022-09-29T14:38:32;58.13;;;55.93;;
73084;SDS011;62974;49.460;10.892;2022-09-29T14:41:10;59.10;;;56.60;;
73084;SDS011;62974;49.460;10.892;2022-09-29T14:43:46;58.63;;;56.17;;
73084;SDS011;62974;49.460;10.892;2022-09-29T14:46:23;58.20;;;55.90;;
73084;SDS011;62974;49.460;10.892;2022-09-29T14:49:31;58.20;;;56.00;;
73084;SDS011;62974;49.460;10.892;2022-09-29T14:52:33;58.97;;;56.77;;
73084;SDS011;62974;49.460;10.892;2022-09-29T14:55:11;58.57;;;56.20;;
73084;SDS011;62974;49.460;10.892;2022-09-29T14:57:53;58.40;;;56.30;;
73084;SDS011;62974;49.460;10.892;2022-09-29T15:00:31;59.30;;;57.20;;
73084;SDS011;62974;49.460;10.892;2022-09-29T15:03:10;58.50;;;56.20;;
73084;SDS011;62974;49.460;10.892;2022-09-29T15:06:04;58.00;;;55.80;;